Hooglede, Belgium
Current Conditions -  °F | °C
As of 8:50 PM on Sunday 23 Nov 2014 (Local Time) from EBOS Reporting Station
Light Rain Light Rain  
Wind Chill: 50°   Ceiling: 500
Heat Index: 50°   Visibility: 2.8mi
Dew Point: 48°   Wind: 15mph
Humidity: 94%   Direction: 340°NNW
Pressure: 30.03"   Gusts: NA
Location:  50.98°N, 3.08°E
Report Text: EBOS 231950Z 34013KT 4500 -RADZ BKN005 10/09 Q1017 NOSIG
Loading
Personal Weather Stations






























Interactive Weather Map New forecast layout! Learn more

10-Day Weather Forecast

Advertisements
Track Severe Weather on mobile